Time;durP1;ratioP1;P1;durP2;ratioP2;P2;SDS_P1;SDS_P2;PMS_P1;PMS_P2;Temp;Humidity;BMP_temperature;BMP_pressure;BME280_temperature;BME280_humidity;BME280_pressure;Samples;Min_cycle;Max_cycle;Signal;HPM_P1;HPM_P2
2022/07/29 00:01:16;;;;;;;3.40;1.70;;;29.20;31.40;;;;;;6291825;28;20386;-74
2022/07/29 00:04:17;;;;;;;3.50;1.50;;;29.20;31.50;;;;;;6270648;28;20048;-74
2022/07/29 00:07:18;;;;;;;8.65;1.90;;;29.20;31.60;;;;;;6252572;28;20037;-74
2022/07/29 00:10:19;;;;;;;5.60;1.75;;;29.10;31.80;;;;;;6275588;28;20036;-75
2022/07/29 00:13:20;;;;;;;2.72;1.90;;;29.00;31.90;;;;;;6266868;28;20105;-74
2022/07/29 00:16:21;;;;;;;4.32;1.70;;;28.90;32.00;;;;;;6235831;28;20025;-74
2022/07/29 00:19:22;;;;;;;5.32;1.75;;;28.90;32.00;;;;;;6235850;28;20034;-75
2022/07/29 00:22:23;;;;;;;2.55;1.42;;;28.90;32.10;;;;;;6251275;28;20125;-74
2022/07/29 00:25:23;;;;;;;2.13;1.27;;;28.90;32.20;;;;;;6250405;28;20087;-75
2022/07/29 00:28:24;;;;;;;2.22;1.58;;;28.80;32.10;;;;;;6268453;28;20052;-75
2022/07/29 00:31:25;;;;;;;4.22;1.60;;;28.70;32.10;;;;;;6275605;28;20538;-75
2022/07/29 00:37:46;;;;;;;6.93;1.67;;;28.90;32.20;;;;;;6263190;28;20378;-74
2022/07/29 00:40:47;;;;;;;5.32;1.88;;;28.80;32.30;;;;;;6265201;28;20048;-75
2022/07/29 00:43:49;;;;;;;4.82;2.30;;;28.80;32.50;;;;;;6272122;28;20059;-74
2022/07/29 00:46:50;;;;;;;4.47;2.03;;;28.80;32.60;;;;;;6252493;28;20057;-74
2022/07/29 00:49:51;;;;;;;7.20;2.08;;;28.80;32.70;;;;;;6288052;28;20056;-74
2022/07/29 00:52:52;;;;;;;4.65;2.00;;;28.80;32.70;;;;;;6287972;28;20052;-74
2022/07/29 00:55:58;;;;;;;3.15;1.67;;;28.80;32.70;;;;;;6290637;28;20045;-74
2022/07/29 00:59:00;;;;;;;3.28;1.77;;;28.70;32.90;;;;;;6276556;28;20044;-75
2022/07/29 01:02:01;;;;;;;6.18;2.40;;;28.80;33.00;;;;;;6288223;28;20033;-74
2022/07/29 01:05:07;;;;;;;5.47;2.38;;;28.80;33.00;;;;;;6271941;28;20377;-74
2022/07/29 01:08:08;;;;;;;3.65;1.80;;;28.70;33.10;;;;;;6271759;28;20518;-74
2022/07/29 01:11:09;;;;;;;3.72;1.90;;;28.70;33.10;;;;;;6271611;28;20029;-75
2022/07/29 01:14:11;;;;;;;5.90;1.63;;;28.70;33.80;;;;;;6264129;28;20338;-75
2022/07/29 01:17:22;;;;;;;3.30;1.80;;;28.70;33.30;;;;;;6275282;28;20037;-74
2022/07/29 01:20:31;;;;;;;2.50;1.60;;;28.60;33.40;;;;;;6286876;28;20040;-74
2022/07/29 01:23:38;;;;;;;2.50;1.45;;;28.60;33.40;;;;;;6269988;28;20040;-75
2022/07/29 01:27:09;;;;;;;5.32;2.25;;;28.60;33.40;;;;;;6286786;28;20037;-75
2022/07/29 01:30:10;;;;;;;5.93;2.38;;;28.60;33.70;;;;;;6269864;28;20029;-75
2022/07/29 01:33:48;;;;;;;4.55;1.80;;;28.60;33.80;;;;;;6270183;28;20041;-74
2022/07/29 01:36:46;;;;;;;2.78;1.67;;;28.50;34.00;;;;;;6270162;28;20033;-74
2022/07/29 01:39:52;;;;;;;3.35;1.80;;;28.50;34.20;;;;;;6269355;28;20122;-75
2022/07/29 01:42:57;;;;;;;2.45;1.70;;;28.50;34.30;;;;;;6285101;28;20037;-74
2022/07/29 01:46:02;;;;;;;6.10;1.60;;;28.40;34.40;;;;;;6285483;28;20485;-75
2022/07/29 01:49:13;;;;;;;3.60;1.60;;;28.40;34.50;;;;;;6268990;28;20335;-75
2022/07/29 01:52:29;;;;;;;4.78;2.15;;;28.40;34.60;;;;;;6268662;28;20454;-74
2022/07/29 01:55:36;;;;;;;7.28;2.00;;;28.40;34.60;;;;;;6284865;28;20419;-74
2022/07/29 01:58:40;;;;;;;2.47;1.65;;;28.40;34.50;;;;;;6268541;28;20037;-75
2022/07/29 02:01:45;;;;;;;9.77;2.17;;;28.40;34.60;;;;;;6302200;28;20045;-74
2022/07/29 02:04:48;;;;;;;3.88;1.85;;;28.30;34.60;;;;;;6252105;28;20037;-74
2022/07/29 02:07:52;;;;;;;2.70;1.80;;;28.30;34.60;;;;;;6268590;28;20098;-73
2022/07/29 02:10:55;;;;;;;6.35;2.00;;;28.30;34.70;;;;;;6269795;28;20044;-73
2022/07/29 02:13:57;;;;;;;2.47;1.70;;;28.30;34.70;;;;;;6269066;28;20040;-75
2022/07/29 02:17:01;;;;;;;2.38;1.40;;;28.30;34.80;;;;;;6269940;28;20064;-75
2022/07/29 02:20:04;;;;;;;5.60;1.77;;;28.20;34.60;;;;;;6269528;28;20428;-74
2022/07/29 02:23:07;;;;;;;3.00;1.90;;;28.20;34.50;;;;;;6285972;28;20158;-75
2022/07/29 02:26:09;;;;;;;1.58;1.38;;;28.10;34.40;;;;;;6286014;28;20083;-74
2022/07/29 02:29:12;;;;;;;5.60;1.63;;;28.10;34.40;;;;;;6285440;28;20032;-75
2022/07/29 02:32:14;;;;;;;4.90;1.50;;;28.10;34.40;;;;;;6270431;28;20045;-75
2022/07/29 02:35:16;;;;;;;10.43;1.70;;;28.10;34.40;;;;;;6252809;28;20082;-75
2022/07/29 02:41:47;;;;;;;1.58;1.35;;;28.00;34.40;;;;;;6284791;28;20051;-75
2022/07/29 02:44:48;;;;;;;2.42;1.58;;;27.90;34.40;;;;;;6260289;28;20037;-75
2022/07/29 02:47:50;;;;;;;5.07;1.73;;;27.90;34.50;;;;;;6273728;28;20120;-75
2022/07/29 02:51:01;;;;;;;12.95;2.08;;;28.00;34.50;;;;;;6269337;28;20060;-75
2022/07/29 02:54:07;;;;;;;2.97;1.85;;;28.00;34.50;;;;;;6271579;28;20052;-75
2022/07/29 02:57:21;;;;;;;6.05;1.90;;;28.00;34.60;;;;;;6269691;28;20377;-75
2022/07/29 03:00:26;;;;;;;7.10;1.90;;;28.00;34.70;;;;;;6268887;28;20040;-75
2022/07/29 03:03:36;;;;;;;1.77;1.35;;;27.90;34.80;;;;;;6276927;28;20099;-74
2022/07/29 03:06:38;;;;;;;4.15;1.52;;;27.80;35.00;;;;;;6231616;28;20102;-75
2022/07/29 03:09:41;;;;;;;3.40;1.70;;;27.70;35.20;;;;;;6269101;28;20154;-75
2022/07/29 03:12:43;;;;;;;2.65;1.40;;;27.70;35.40;;;;;;6268183;28;20088;-74
2022/07/29 03:15:45;;;;;;;3.65;1.50;;;27.60;35.50;;;;;;6285394;28;20443;-75
2022/07/29 03:18:47;;;;;;;4.53;2.15;;;27.50;35.80;;;;;;6268097;28;20045;-75
2022/07/29 03:21:48;;;;;;;3.85;1.85;;;27.50;36.10;;;;;;6269425;28;20043;-74
2022/07/29 03:24:49;;;;;;;2.58;1.50;;;27.60;36.00;;;;;;6285536;28;20103;-74
2022/07/29 03:27:50;;;;;;;4.93;1.80;;;27.50;35.90;;;;;;6301771;28;20033;-75
2022/07/29 03:30:51;;;;;;;2.53;1.27;;;27.50;36.10;;;;;;6285067;28;20098;-74
2022/07/29 03:33:52;;;;;;;2.70;1.60;;;27.40;36.20;;;;;;6269686;28;20072;-74
2022/07/29 03:36:53;;;;;;;1.60;1.20;;;27.40;36.70;;;;;;6267631;28;20036;-74
2022/07/29 03:39:56;;;;;;;3.20;1.40;;;27.40;37.10;;;;;;6267877;28;20029;-75
2022/07/29 03:43:00;;;;;;;2.70;1.30;;;27.40;36.40;;;;;;6269123;28;20404;-75
2022/07/29 03:46:03;;;;;;;3.03;1.42;;;27.40;36.30;;;;;;6269631;28;20044;-75
2022/07/29 03:49:04;;;;;;;2.75;1.60;;;27.30;36.30;;;;;;6275150;28;20033;-74
2022/07/29 03:52:06;;;;;;;3.58;1.70;;;27.30;36.40;;;;;;6274318;28;20056;-74
2022/07/29 03:55:08;;;;;;;2.35;1.85;;;27.40;36.40;;;;;;6275427;28;20044;-75
2022/07/29 03:58:12;;;;;;;2.20;1.60;;;27.50;36.30;;;;;;6273918;28;20087;-75
2022/07/29 04:01:15;;;;;;;3.10;1.45;;;27.60;36.30;;;;;;6274260;28;20155;-74
2022/07/29 04:04:16;;;;;;;3.95;1.80;;;27.60;36.30;;;;;;6289961;28;20055;-74
2022/07/29 04:07:18;;;;;;;6.50;1.88;;;27.60;36.90;;;;;;6274079;28;20105;-75
2022/07/29 04:10:18;;;;;;;6.93;1.88;;;27.60;36.50;;;;;;6290376;28;20398;-75
2022/07/29 04:13:20;;;;;;;10.43;1.77;;;27.60;36.40;;;;;;6290173;28;20041;-75
2022/07/29 04:16:21;;;;;;;4.32;1.75;;;27.50;36.40;;;;;;6273733;28;20510;-74
2022/07/29 04:19:22;;;;;;;4.35;1.83;;;27.50;36.40;;;;;;6273564;28;20039;-74
2022/07/29 04:22:23;;;;;;;2.95;1.80;;;27.50;36.50;;;;;;6257117;28;20358;-74
2022/07/29 04:25:24;;;;;;;3.35;1.83;;;27.40;36.70;;;;;;6273697;28;20395;-75
2022/07/29 04:28:25;;;;;;;2.78;1.95;;;27.40;36.70;;;;;;6289897;28;20037;-75
2022/07/29 04:31:26;;;;;;;3.08;2.00;;;27.30;36.80;;;;;;6290073;28;20132;-74
2022/07/29 04:34:27;;;;;;;6.10;2.05;;;27.30;36.80;;;;;;6273504;28;20462;-75
2022/07/29 04:37:28;;;;;;;4.80;2.20;;;27.40;36.90;;;;;;6273328;28;20033;-74
2022/07/29 04:40:29;;;;;;;2.53;1.48;;;27.40;37.00;;;;;;6272802;28;20055;-75
2022/07/29 04:43:30;;;;;;;4.22;1.80;;;27.30;37.00;;;;;;6274086;28;20521;-75
2022/07/29 04:46:31;;;;;;;2.88;1.67;;;27.30;37.00;;;;;;6280516;28;20047;-74
2022/07/29 04:49:32;;;;;;;7.15;1.48;;;27.30;37.00;;;;;;6298166;28;20044;-75
2022/07/29 04:52:34;;;;;;;4.95;1.80;;;27.30;37.00;;;;;;6298438;28;20122;-75
2022/07/29 04:55:36;;;;;;;1.90;1.50;;;27.20;37.10;;;;;;6297595;28;20724;-75
2022/07/29 04:58:37;;;;;;;7.13;1.60;;;27.30;37.10;;;;;;6279637;28;20135;-74
2022/07/29 05:01:38;;;;;;;3.15;1.65;;;27.40;37.20;;;;;;6287279;28;20330;-74
2022/07/29 05:04:38;;;;;;;7.28;1.95;;;27.40;37.10;;;;;;6274098;28;20047;-75
2022/07/29 05:07:39;;;;;;;6.72;1.65;;;27.40;37.10;;;;;;6289231;28;20037;-75
2022/07/29 05:10:40;;;;;;;2.33;1.70;;;27.50;37.10;;;;;;6272128;28;20454;-75
2022/07/29 05:13:41;;;;;;;4.43;1.73;;;27.50;37.00;;;;;;6278301;28;20420;-74
2022/07/29 05:16:43;;;;;;;4.90;1.85;;;27.50;36.90;;;;;;6256005;28;20537;-75
2022/07/29 05:19:44;;;;;;;1.73;1.33;;;27.50;36.80;;;;;;6273380;28;20041;-74
2022/07/29 05:22:45;;;;;;;10.40;1.65;;;27.60;36.70;;;;;;6273157;28;20053;-74
2022/07/29 05:25:46;;;;;;;3.72;1.67;;;27.70;36.60;;;;;;6272139;28;20346;-74
2022/07/29 05:28:47;;;;;;;7.60;1.65;;;27.90;36.40;;;;;;6272843;28;20521;-73
2022/07/29 05:31:47;;;;;;;4.30;1.40;;;28.00;36.20;;;;;;6280538;28;20100;-73
2022/07/29 05:34:48;;;;;;;5.85;1.50;;;28.00;36.10;;;;;;6272073;28;20413;-74
2022/07/29 05:37:50;;;;;;;3.40;1.42;;;28.00;35.90;;;;;;6255300;28;20355;-75
2022/07/29 05:40:51;;;;;;;8.50;1.50;;;27.90;36.80;;;;;;6271610;28;20025;-74
2022/07/29 05:43:51;;;;;;;5.07;1.45;;;27.80;36.40;;;;;;6254491;28;20056;-74
2022/07/29 05:46:52;;;;;;;13.90;2.20;;;27.80;36.60;;;;;;6272613;28;20033;-75
2022/07/29 05:49:53;;;;;;;4.80;1.80;;;27.80;36.50;;;;;;6287475;28;20041;-75
2022/07/29 05:52:54;;;;;;;9.20;1.90;;;27.90;36.50;;;;;;6285922;28;20065;-75
2022/07/29 05:55:55;;;;;;;8.80;1.75;;;28.00;36.40;;;;;;6272164;28;20037;-75
2022/07/29 05:58:56;;;;;;;5.88;2.55;;;28.00;36.80;;;;;;6269899;28;20359;-74
2022/07/29 06:01:57;;;;;;;7.13;1.67;;;28.00;36.20;;;;;;6270160;28;20481;-74
2022/07/29 06:04:58;;;;;;;7.85;1.73;;;28.10;36.10;;;;;;6270820;28;20068;-75
2022/07/29 06:07:59;;;;;;;8.30;1.75;;;28.20;36.00;;;;;;6271904;28;20470;-75
2022/07/29 06:11:00;;;;;;;2.70;1.67;;;28.30;35.80;;;;;;6269690;28;20105;-75
2022/07/29 06:14:02;;;;;;;12.32;1.85;;;28.40;35.60;;;;;;6262174;28;20098;-75
2022/07/29 06:17:05;;;;;;;13.38;2.25;;;28.50;35.40;;;;;;6270718;28;20059;-74
2022/07/29 06:20:06;;;;;;;7.45;1.80;;;28.60;35.30;;;;;;6287293;28;20040;-74
2022/07/29 06:23:07;;;;;;;9.95;2.22;;;28.60;35.10;;;;;;6264752;28;20033;-74
2022/07/29 06:26:08;;;;;;;9.48;1.88;;;28.60;35.10;;;;;;6270296;28;20036;-74
2022/07/29 06:29:13;;;;;;;15.15;2.20;;;28.60;35.20;;;;;;6271454;28;20059;-74
2022/07/29 06:32:14;;;;;;;3.35;1.70;;;28.60;35.40;;;;;;6270016;28;20062;-75
2022/07/29 06:35:15;;;;;;;10.88;2.20;;;28.60;35.50;;;;;;6270258;28;20064;-75
2022/07/29 06:38:16;;;;;;;6.15;2.08;;;28.60;35.50;;;;;;6270070;28;20041;-75
2022/07/29 06:41:17;;;;;;;5.15;1.90;;;28.70;35.60;;;;;;6254121;28;20415;-74
2022/07/29 06:44:18;;;;;;;7.15;2.03;;;28.80;35.60;;;;;;6261223;28;20106;-73
2022/07/29 06:47:19;;;;;;;9.07;2.05;;;28.90;35.60;;;;;;6245215;28;20063;-73
2022/07/29 06:50:23;;;;;;;6.13;2.00;;;28.90;35.80;;;;;;6246224;28;20041;-74
2022/07/29 06:53:24;;;;;;;4.60;2.00;;;29.00;35.80;;;;;;6278164;28;20049;-75
2022/07/29 06:56:25;;;;;;;9.02;2.63;;;29.10;35.70;;;;;;6268408;28;20052;-74
2022/07/29 06:59:26;;;;;;;9.68;2.10;;;29.20;35.70;;;;;;6286102;28;20032;-74
2022/07/29 07:02:27;;;;;;;5.72;1.73;;;29.20;35.60;;;;;;6270258;28;20457;-74
2022/07/29 07:05:28;;;;;;;2.75;2.00;;;29.20;35.40;;;;;;6255682;28;20040;-74
2022/07/29 07:08:29;;;;;;;5.10;2.00;;;29.30;35.30;;;;;;6269639;28;20089;-75
2022/07/29 07:11:30;;;;;;;7.68;2.28;;;29.30;35.10;;;;;;6269996;28;20040;-75
2022/07/29 07:14:31;;;;;;;6.57;2.22;;;29.40;35.00;;;;;;6268661;28;20033;-75
2022/07/29 07:17:32;;;;;;;3.72;2.00;;;29.50;35.00;;;;;;6246177;28;20112;-75
2022/07/29 07:20:34;;;;;;;6.43;1.95;;;29.50;34.90;;;;;;6233062;28;20415;-75
2022/07/29 07:23:35;;;;;;;7.18;2.00;;;29.60;34.80;;;;;;6266233;28;20092;-75
2022/07/29 07:26:36;;;;;;;7.60;2.20;;;29.70;34.70;;;;;;6266322;28;20038;-74
2022/07/29 07:29:40;;;;;;;12.10;2.50;;;29.70;34.70;;;;;;6276308;28;20107;-75
2022/07/29 07:32:42;;;;;;;5.55;2.20;;;29.60;34.70;;;;;;6257359;28;20048;-75
2022/07/29 07:35:44;;;;;;;7.63;2.10;;;29.60;34.80;;;;;;6275461;28;20357;-74
2022/07/29 07:38:45;;;;;;;4.05;2.08;;;29.40;34.60;;;;;;6275138;28;20029;-76
2022/07/29 07:41:45;;;;;;;13.82;2.20;;;29.50;34.70;;;;;;6274913;28;20147;-74
2022/07/29 07:44:48;;;;;;;10.95;3.67;;;29.50;34.60;;;;;;6275161;28;20051;-75
2022/07/29 07:47:49;;;;;;;7.50;3.10;;;29.50;34.70;;;;;;6274551;28;20032;-75
2022/07/29 07:50:50;;;;;;;6.50;2.22;;;29.50;34.60;;;;;;6290010;28;20126;-75
2022/07/29 07:53:51;;;;;;;5.60;2.55;;;29.50;34.50;;;;;;6290157;28;20485;-74
2022/07/29 07:56:52;;;;;;;3.47;1.75;;;29.50;34.50;;;;;;6289630;28;20047;-75
2022/07/29 07:59:52;;;;;;;4.03;2.10;;;29.50;34.40;;;;;;6272864;28;20041;-75
2022/07/29 08:02:53;;;;;;;6.43;2.30;;;29.40;34.10;;;;;;6273201;28;20330;-75
2022/07/29 08:05:55;;;;;;;10.70;2.42;;;29.40;34.10;;;;;;6256908;28;20044;-75
2022/07/29 08:08:56;;;;;;;4.75;2.10;;;29.40;34.90;;;;;;6273795;28;20429;-74
2022/07/29 08:11:58;;;;;;;15.05;2.65;;;29.30;34.40;;;;;;6272830;28;20045;-75
2022/07/29 08:14:59;;;;;;;6.90;2.30;;;29.30;34.60;;;;;;6256165;28;20400;-76
2022/07/29 08:18:00;;;;;;;4.07;2.33;;;29.40;34.90;;;;;;6274209;28;20044;-75
2022/07/29 08:21:01;;;;;;;6.78;2.67;;;29.30;35.00;;;;;;6256133;28;20059;-74
2022/07/29 08:27:26;;;;;;;7.28;2.20;;;29.30;35.30;;;;;;6272921;28;20037;-75
2022/07/29 08:30:28;;;;;;;7.47;2.03;;;29.20;35.40;;;;;;6289472;28;20048;-75
2022/07/29 08:33:29;;;;;;;5.22;2.15;;;29.10;35.60;;;;;;6271335;28;20029;-75
2022/07/29 08:36:30;;;;;;;5.43;1.70;;;29.00;36.00;;;;;;6272661;28;20056;-75
2022/07/29 08:39:31;;;;;;;4.22;2.10;;;28.80;36.10;;;;;;6273316;28;20346;-75
2022/07/29 08:42:32;;;;;;;5.78;2.03;;;28.70;36.40;;;;;;6253648;28;20055;-74
2022/07/29 08:45:46;;;;;;;5.25;1.98;;;28.50;36.60;;;;;;6248111;28;20482;-76
2022/07/29 08:48:48;;;;;;;8.32;2.78;;;28.40;36.80;;;;;;6264117;28;20034;-75
2022/07/29 08:51:50;;;;;;;7.53;2.17;;;28.30;37.10;;;;;;6248301;28;20099;-75
2022/07/29 08:54:53;;;;;;;4.68;2.35;;;28.30;37.40;;;;;;6229019;28;20073;-74
2022/07/29 08:57:55;;;;;;;3.40;2.53;;;28.20;37.70;;;;;;6254644;28;20065;-75
2022/07/29 09:00:56;;;;;;;9.45;2.25;;;28.10;38.20;;;;;;6271123;28;20033;-74
2022/07/29 09:04:00;;;;;;;9.90;2.75;;;28.00;39.20;;;;;;6254381;28;20033;-74
2022/07/29 09:07:04;;;;;;;7.57;3.03;;;27.80;39.90;;;;;;6271785;28;20484;-74
2022/07/29 09:10:05;;;;;;;11.18;2.97;;;27.70;40.90;;;;;;6271935;28;20059;-75
2022/07/29 09:13:06;;;;;;;12.10;3.00;;;27.50;42.60;;;;;;6263867;28;20480;-75
2022/07/29 09:16:07;;;;;;;7.20;3.25;;;27.30;43.70;;;;;;6247222;28;20086;-74
2022/07/29 09:19:26;;;;;;;5.40;3.00;;;27.10;44.80;;;;;;6262637;28;20344;-75
2022/07/29 09:22:31;;;;;;;7.70;3.53;;;26.90;46.20;;;;;;6246212;28;20063;-75
2022/07/29 09:25:36;;;;;;;8.55;3.38;;;26.60;47.20;;;;;;6257596;28;20029;-75
2022/07/29 09:28:42;;;;;;;7.50;3.30;;;26.30;48.20;;;;;;6274658;28;20056;-74
2022/07/29 09:31:47;;;;;;;5.70;2.60;;;26.10;48.70;;;;;;6288055;28;20069;-74
2022/07/29 09:34:48;;;;;;;8.38;2.92;;;25.90;48.80;;;;;;6271282;28;20393;-74
2022/07/29 09:37:51;;;;;;;9.70;3.45;;;25.80;48.80;;;;;;6254767;28;20102;-75
2022/07/29 09:41:00;;;;;;;7.78;3.17;;;25.90;49.30;;;;;;6271117;28;20454;-75
2022/07/29 09:44:01;;;;;;;10.50;2.65;;;25.90;49.90;;;;;;6258392;28;20048;-75
2022/07/29 09:47:06;;;;;;;9.98;3.33;;;25.90;50.60;;;;;;6262844;28;20508;-75
2022/07/29 09:50:08;;;;;;;20.60;3.45;;;25.90;51.00;;;;;;6246592;28;20037;-75
2022/07/29 09:53:09;;;;;;;15.13;3.80;;;25.90;50.90;;;;;;6245880;28;20422;-75
2022/07/29 09:56:10;;;;;;;10.55;3.15;;;26.10;51.00;;;;;;6265975;28;20033;-75
2022/07/29 09:59:12;;;;;;;8.90;3.00;;;26.20;51.10;;;;;;6303565;28;20048;-75
2022/07/29 10:02:13;;;;;;;7.25;3.55;;;26.20;51.20;;;;;;6272262;28;20037;-75
2022/07/29 10:05:24;;;;;;;7.70;3.08;;;26.30;51.20;;;;;;6275912;28;20036;-75
2022/07/29 10:08:26;;;;;;;8.88;3.30;;;26.30;51.40;;;;;;6264848;28;20046;-75
2022/07/29 10:11:27;;;;;;;7.85;3.03;;;26.20;51.60;;;;;;6283367;28;20106;-75
2022/07/29 10:14:29;;;;;;;7.15;2.85;;;26.10;51.80;;;;;;6278236;28;20037;-75
2022/07/29 10:17:30;;;;;;;6.32;3.10;;;26.10;51.80;;;;;;6246198;28;20438;-75
2022/07/29 10:20:31;;;;;;;6.97;3.80;;;26.20;51.80;;;;;;6245160;28;20052;-75
2022/07/29 10:23:33;;;;;;;16.70;3.40;;;26.30;51.60;;;;;;6246492;28;20069;-75
2022/07/29 10:26:36;;;;;;;9.27;2.97;;;26.30;51.60;;;;;;6246581;28;20030;-75
2022/07/29 10:29:37;;;;;;;5.25;2.78;;;26.40;51.60;;;;;;6245872;28;20067;-75
2022/07/29 10:32:53;;;;;;;8.35;3.80;;;26.50;51.40;;;;;;6259376;28;20041;-75
2022/07/29 10:36:21;;;;;;;8.38;3.63;;;26.50;51.50;;;;;;6285932;28;20040;-75
2022/07/29 10:43:36;;;;;;;9.38;3.08;;;26.30;51.50;;;;;;6267343;28;20116;-76
2022/07/29 10:46:39;;;;;;;9.82;4.38;;;26.20;51.90;;;;;;6284202;28;20404;-75
2022/07/29 10:49:57;;;;;;;8.75;4.05;;;26.10;52.10;;;;;;6267330;28;20124;-75
2022/07/29 10:52:59;;;;;;;8.10;3.70;;;26.00;52.40;;;;;;6265892;28;20036;-75
2022/07/29 10:56:00;;;;;;;13.60;4.82;;;26.00;52.50;;;;;;6266338;28;20112;-75
2022/07/29 10:59:19;;;;;;;13.25;5.10;;;25.90;53.00;;;;;;6263685;28;20098;-75
2022/07/29 11:02:42;;;;;;;11.95;5.97;;;25.80;53.20;;;;;;6283391;28;20041;-75
2022/07/29 11:06:00;;;;;;;32.00;12.02;;;25.70;53.40;;;;;;6265022;28;20091;-75
2022/07/29 11:09:20;;;;;;;;;;;25.70;53.60;;;;;;6267583;28;20029;-74
2022/07/29 11:12:36;;;;;;;12.70;5.25;;;25.70;53.50;;;;;;6266405;28;19917;-75
2022/07/29 11:15:57;;;;;;;5.30;4.13;;;25.70;53.60;;;;;;6243199;28;20438;-74
2022/07/29 11:19:13;;;;;;;7.32;3.55;;;25.60;53.70;;;;;;6258612;28;20127;-76
2022/07/29 11:22:32;;;;;;;6.75;3.97;;;25.60;53.70;;;;;;6241883;28;20045;-76
2022/07/29 11:25:33;;;;;;;10.38;5.55;;;25.70;53.50;;;;;;6247638;28;20033;-76
2022/07/29 11:28:55;;;;;;;12.07;4.90;;;25.70;53.40;;;;;;6265282;28;20124;-74
2022/07/29 11:32:09;;;;;;;16.40;6.72;;;25.70;53.40;;;;;;6250876;28;20045;-75
2022/07/29 11:35:23;;;;;;;9.70;4.93;;;25.90;53.60;;;;;;6254392;28;20037;-75
2022/07/29 11:38:43;;;;;;;12.68;4.80;;;26.00;53.50;;;;;;6247739;28;20048;-75
2022/07/29 11:41:48;;;;;;;8.90;4.00;;;26.10;53.40;;;;;;6266563;28;20029;-76
2022/07/29 11:45:13;;;;;;;10.50;3.90;;;26.10;53.30;;;;;;6257053;28;20116;-75
2022/07/29 11:48:18;;;;;;;9.68;3.88;;;26.10;53.30;;;;;;6266998;28;20067;-75
2022/07/29 11:51:22;;;;;;;8.63;4.30;;;26.10;53.30;;;;;;6273262;28;20037;-75
2022/07/29 11:54:39;;;;;;;5.40;3.17;;;26.10;53.50;;;;;;6280243;28;20068;-74
2022/07/29 11:57:53;;;;;;;8.20;3.47;;;26.00;53.50;;;;;;6264466;28;20033;-74
2022/07/29 12:00:54;;;;;;;7.07;3.53;;;25.90;53.40;;;;;;6258025;28;20041;-75
2022/07/29 12:04:06;;;;;;;8.43;3.28;;;25.80;53.40;;;;;;6266652;28;20075;-74
2022/07/29 12:07:07;;;;;;;7.22;3.72;;;25.80;53.60;;;;;;6267561;28;20440;-74
2022/07/29 12:10:08;;;;;;;12.20;4.82;;;25.70;53.60;;;;;;6279132;28;20071;-75
2022/07/29 12:13:10;;;;;;;12.02;5.38;;;25.70;53.70;;;;;;6285760;28;20060;-75
2022/07/29 12:16:11;;;;;;;10.73;5.35;;;25.80;53.80;;;;;;6270011;28;20477;-75
2022/07/29 12:19:12;;;;;;;7.15;5.13;;;25.90;53.50;;;;;;6303506;28;20049;-75
2022/07/29 12:22:28;;;;;;;14.15;7.68;;;26.10;53.20;;;;;;6270497;28;20051;-74
2022/07/29 12:25:34;;;;;;;7.90;4.68;;;26.30;52.80;;;;;;6269176;28;20033;-76
2022/07/29 12:28:38;;;;;;;5.38;3.53;;;26.50;52.40;;;;;;6286759;28;20029;-75
2022/07/29 12:31:39;;;;;;;6.55;4.22;;;26.70;52.10;;;;;;6286744;28;20052;-76
2022/07/29 12:34:40;;;;;;;7.65;4.03;;;27.00;51.80;;;;;;6269371;28;20037;-75
2022/07/29 12:37:43;;;;;;;5.47;3.00;;;27.30;51.50;;;;;;6269129;28;20033;-75
2022/07/29 12:40:46;;;;;;;7.25;3.75;;;27.50;50.90;;;;;;6251457;28;20044;-76
2022/07/29 12:43:54;;;;;;;10.52;4.30;;;27.70;50.50;;;;;;6268817;28;20044;-75
2022/07/29 12:47:04;;;;;;;6.70;3.53;;;27.70;50.40;;;;;;6252608;28;20033;-74
2022/07/29 12:50:14;;;;;;;5.53;2.90;;;27.80;50.50;;;;;;6243922;28;20128;-75
2022/07/29 12:53:14;;;;;;;8.95;3.40;;;28.30;50.10;;;;;;6248113;28;20040;-75
2022/07/29 12:56:16;;;;;;;5.75;3.35;;;29.00;48.40;;;;;;6272649;28;20395;-76
2022/07/29 12:59:42;;;;;;;7.85;3.70;;;30.10;47.00;;;;;;6282763;28;20036;-74
2022/07/29 13:02:43;;;;;;;8.23;3.03;;;31.10;45.10;;;;;;6269915;28;20064;-76
2022/07/29 13:05:45;;;;;;;7.97;4.13;;;32.10;42.60;;;;;;6252750;28;20480;-75
2022/07/29 13:09:13;;;;;;;6.03;4.30;;;32.80;40.50;;;;;;6269097;28;20472;-74
2022/07/29 13:12:15;;;;;;;7.28;4.35;;;33.60;39.20;;;;;;6207005;28;20107;-74
2022/07/29 13:15:16;;;;;;;5.50;3.10;;;34.30;38.00;;;;;;6263807;28;20111;-74
2022/07/29 13:18:27;;;;;;;5.18;2.97;;;35.00;37.00;;;;;;6265811;28;20032;-74
2022/07/29 13:21:28;;;;;;;10.43;6.30;;;35.80;35.80;;;;;;6235434;28;20536;-74
2022/07/29 13:24:29;;;;;;;5.43;3.30;;;36.60;33.90;;;;;;6220222;28;20033;-74
2022/07/29 13:27:33;;;;;;;5.22;3.17;;;37.00;33.00;;;;;;6264472;28;20033;-75
2022/07/29 13:30:34;;;;;;;11.02;3.28;;;37.40;32.10;;;;;;6265940;28;20041;-75
2022/07/29 13:33:35;;;;;;;5.35;2.50;;;38.10;31.30;;;;;;6242428;28;20077;-73
2022/07/29 13:36:37;;;;;;;5.55;3.47;;;38.80;30.00;;;;;;6192418;28;20101;-74
2022/07/29 13:39:39;;;;;;;7.38;3.40;;;39.50;29.40;;;;;;6222844;28;20110;-75
2022/07/29 13:42:41;;;;;;;8.60;3.13;;;40.10;28.20;;;;;;6225091;28;20041;-75
2022/07/29 13:45:42;;;;;;;6.05;3.30;;;40.60;28.10;;;;;;6248884;28;20053;-74
2022/07/29 13:48:43;;;;;;;6.00;2.70;;;41.20;27.40;;;;;;6235199;28;20049;-74
2022/07/29 13:51:44;;;;;;;3.40;2.75;;;41.60;26.80;;;;;;6265994;28;20037;-75
2022/07/29 13:54:45;;;;;;;3.90;2.38;;;42.10;26.30;;;;;;6268049;28;20354;-75
2022/07/29 13:57:47;;;;;;;5.95;2.83;;;42.20;26.10;;;;;;6265607;28;20055;-75
2022/07/29 14:00:48;;;;;;;7.25;2.60;;;42.50;25.90;;;;;;6266770;28;20037;-75
2022/07/29 14:03:50;;;;;;;4.10;2.88;;;42.60;25.60;;;;;;6241834;28;20461;-76
2022/07/29 14:06:53;;;;;;;4.60;2.53;;;42.70;25.30;;;;;;6250242;28;20048;-76
2022/07/29 14:09:54;;;;;;;4.43;2.30;;;42.80;25.10;;;;;;6265992;28;20106;-76
2022/07/29 14:12:55;;;;;;;3.10;2.08;;;42.60;25.20;;;;;;6266561;28;20041;-75
2022/07/29 14:15:56;;;;;;;4.68;2.47;;;42.00;25.40;;;;;;6266428;28;20029;-76
2022/07/29 14:18:56;;;;;;;8.70;3.95;;;41.00;26.00;;;;;;6265573;28;20095;-74
2022/07/29 14:21:57;;;;;;;4.18;3.08;;;39.90;26.90;;;;;;6267453;28;20045;-75
2022/07/29 14:24:58;;;;;;;7.72;2.33;;;39.80;27.30;;;;;;6283801;28;20041;-75
2022/07/29 14:28:01;;;;;;;5.05;2.53;;;39.70;26.90;;;;;;6266140;28;20112;-75
2022/07/29 14:31:01;;;;;;;5.50;2.25;;;39.10;27.60;;;;;;6266552;28;20461;-76
2022/07/29 14:34:02;;;;;;;4.78;3.03;;;38.50;28.50;;;;;;6250182;28;20056;-75
2022/07/29 14:37:08;;;;;;;3.70;2.10;;;38.30;29.00;;;;;;6267074;28;20037;-74
2022/07/29 14:40:10;;;;;;;3.80;2.53;;;38.90;28.50;;;;;;6249781;28;20440;-75
2022/07/29 14:43:11;;;;;;;5.97;2.40;;;39.90;27.50;;;;;;6267842;28;20053;-75
2022/07/29 14:46:12;;;;;;;7.53;3.00;;;40.60;26.70;;;;;;6266562;28;20029;-75
2022/07/29 14:49:12;;;;;;;2.45;2.25;;;41.20;26.20;;;;;;6265501;28;20397;-75
2022/07/29 14:52:13;;;;;;;3.05;2.10;;;41.70;25.60;;;;;;6266288;28;20048;-75
2022/07/29 14:55:14;;;;;;;3.20;2.22;;;41.70;25.30;;;;;;6283304;28;20438;-74
2022/07/29 14:58:15;;;;;;;3.85;2.17;;;41.60;25.30;;;;;;6257294;28;20090;-75
2022/07/29 15:01:16;;;;;;;5.90;2.25;;;41.00;25.80;;;;;;6265639;28;20021;-76
2022/07/29 15:04:17;;;;;;;6.43;2.40;;;40.00;26.80;;;;;;6249837;28;20033;-75
2022/07/29 15:07:18;;;;;;;5.28;2.70;;;38.90;27.80;;;;;;6265911;28;20049;-75
2022/07/29 15:10:19;;;;;;;4.47;2.25;;;37.80;29.00;;;;;;6249761;28;20174;-75
2022/07/29 15:13:20;;;;;;;3.90;1.80;;;36.80;30.20;;;;;;6249738;28;20060;-75
2022/07/29 15:16:21;;;;;;;3.55;2.00;;;35.90;31.00;;;;;;6251046;28;20086;-75
2022/07/29 15:19:22;;;;;;;3.92;1.90;;;35.10;31.70;;;;;;6268366;28;20098;-75
2022/07/29 15:22:22;;;;;;;4.93;2.10;;;34.50;32.70;;;;;;6267037;28;20478;-75
2022/07/29 15:25:25;;;;;;;2.60;2.28;;;33.90;33.20;;;;;;6266773;28;20167;-77
2022/07/29 15:28:26;;;;;;;4.20;1.80;;;33.50;33.70;;;;;;6268075;28;20472;-75
2022/07/29 15:31:27;;;;;;;2.40;1.80;;;34.10;33.40;;;;;;6269169;28;20105;-75
2022/07/29 15:34:27;;;;;;;4.05;2.22;;;35.40;31.90;;;;;;6282044;28;20033;-76
2022/07/29 15:37:28;;;;;;;3.70;2.22;;;36.90;30.00;;;;;;6264456;28;20037;-75
2022/07/29 15:40:30;;;;;;;2.72;2.00;;;38.20;28.60;;;;;;6267075;28;20037;-76
2022/07/29 15:43:31;;;;;;;5.25;2.22;;;39.10;27.20;;;;;;6251177;28;20036;-74
2022/07/29 15:49:51;;;;;;;7.07;2.97;;;40.70;25.60;;;;;;6270558;28;20036;-77
2022/07/29 15:52:52;;;;;;;6.88;4.07;;;41.10;25.00;;;;;;6283982;28;20124;-76
2022/07/29 15:55:53;;;;;;;3.00;2.10;;;41.40;25.10;;;;;;6292833;28;20078;-75
2022/07/29 15:58:54;;;;;;;4.13;2.35;;;41.80;24.90;;;;;;6293475;28;20051;-76
2022/07/29 16:01:56;;;;;;;4.82;1.92;;;42.20;24.60;;;;;;6277001;28;20051;-75
2022/07/29 16:04:56;;;;;;;4.10;2.33;;;42.40;24.00;;;;;;6290100;28;20037;-75
2022/07/29 16:07:59;;;;;;;3.47;2.00;;;42.40;24.20;;;;;;6293529;28;20036;-75
2022/07/29 16:11:00;;;;;;;2.15;1.70;;;42.70;24.00;;;;;;6275643;28;20040;-75